Terminal Aerodrome Forecast
Issued by NWS

Home | Current Version | Previous Version | Text Only | Print | Product List | Glossary On
Versions: 1 2 3 4 5 6 7 8 9 10 11 12 13 14 15 16
000
FTAK31 PAJN 301122
TAFAJN
TAF
PAJN 301122Z 3012/3112 VRB04KT P6SM VCSH BKN060 OVC080
      WS020/06020KT
      TEMPO 3012/3016 6SM -RA FEW003 OVC060
     FM301600 07010KT P6SM -SHRA OVC060 WS020/06030KT
     FM302200 07008KT P6SM VCSH OVC100=

USA.gov is the U.S. government's official web portal to all federal, state and local government web resources and services.